Aérodrome :
LOGIN :

S'inscrire | Disclaimer

   EN    FR    IT 

 










Légende :    VFR   VFR Marginal   IFR   IFR Intensif   IFR Très Intensif
Visi : 
Plafond : 
>= 8 km
>= 3000ft
5 à 8 km
1000 à 3000 ft
1500m à 5 km
500 à 1000 ft
800 à 1500m
200 à 500 ft
< 800m
< 200 ft
Symboles :   Orages  Brouillard  Fortes neiges  Fortes précipitations  Vent > 20 kt
SIGMETs :   Divers  Orages  Givrage  Turbulence  Onde Orograph.  Cendres Volcan.






- Altitude de l'aérodrome : 15 ft
- Code IATA : BHD


EGAC - George Best Belfast City

DERNIER METAR :
  • 222020Z AUTO 09011KT 9999 FEW029/// BKN048/// 08/06 Q0994

METARs EXPIRÉS :
  • 221950Z AUTO 10008KT 9999 BKN038/// 08/06 Q0994
  • 221920Z AUTO 09007KT 9999 FEW025/// SCT045/// 08/06 Q0994
  • 221850Z AUTO 07008KT 9999 -RA SCT025/// BKN037/// 08/06 Q0993
  • 221820Z AUTO 08009KT 9999 SCT024/// SCT029/// BKN044/// 08/06 Q0993
  • 221750Z AUTO 08007KT 9999 -RA FEW020/// SCT028/// BKN037/// 08/06 Q0993

TAF TAF EGAC
Valide du 22 à 18h jusqu'au 22 à 22h UTC


221703Z 2218/2222 09012KT 9999 FEW012 BKN020
PROB30
TEMPO 2218/2222 4000 +SHRA TSRA BKN008 BKN014CB
ATIS : +44 02890 935 124



MET'MAP, la Météo Aéronautique d'un coup d'oeil ! - Copyright ORBIFLY Décembre 2007 - Disclaimer

ORBIFLY MET'MAP TEAM :

Programmation & Développement : Alexandra Zaïnal
Conception & Développement : Baudouin d'Aumeries
Co-Programmation & Développement : Marc-Olivier Méhu
Soutien technique & logistique : Manuel Goepfert

Contact : metmap@orbifly.com




SOURCES & CREDITS :

   NOAA